Terminal Aerodrome Forecast
Issued by NWS Omaha/Valley, NE

Home | Current Version | Previous Version | Graphics & Text | Print | Product List | Glossary On
Versions: 1 2 3 4 5 6 7 8 9 10 11 12 13 14 15 16 17 18 19
000
FTUS43 KOAX 192320
TAFOFK
TAF
KOFK 192320Z 2000/2024 36010KT P6SM BKN009 OVC015
     FM200300 01011KT P6SM VCSH OVC008
     FM201600 02009KT P6SM OVC010=

USA.gov is the U.S. government's official web portal to all federal, state and local government web resources and services.